Terminal Aerodrome Forecast
Issued by NWS Mt. Holly, NJ

Home | Current Version | Previous Version | Text Only | Print | Product List | Glossary On
Versions: 1 2 3 4 5 6 7 8 9 10 11 12 13 14 15 16 17 18 19 20 21 22 23 24 25 26 27 28 29 30 31
000
FTUS41 KPHI 032339
TAFTTN
TAF
KTTN 032339Z 0400/0424 16007KT 2SM -FZRAPL BR FEW006 OVC015
     FM040200 18007KT 2SM -FZRA OVC009 WS020/21040KT
     FM040400 20008KT 2SM -RA BR OVC006 WS015/23050KT
     FM040800 23008KT 3SM -RA BR OVC003 WS020/25040KT
     FM041100 31006KT 2SM -RA BR OVC007
      TEMPO 0411/0415 3/4SM BR OVC004
     FM042300 36005KT 5SM -RA BR OVC007=

USA.gov is the U.S. government's official web portal to all federal, state and local government web resources and services.